الكل
Toowoomba Hospital Airport (Harristown, QLD) YXTO حالة الطقس
There is no TAF data available at YXTO. Showing TAF data for YTWB (3 mi شمالي غربي).
توقع منطقة محطة المطار TWB (لا توجد بيانات لـYXTO)
| Date | Time (AEST) | Flight Rules | Wind Dir. | Speed | Type | Height AGL (ft) | Visibility | Remarks | ||||||
|---|---|---|---|---|---|---|---|---|---|---|---|---|---|---|
| 08-ماي | 23:00 | VFR | 240° | 14 kt | Clouds and Visibility are OK | >= 6 miles | ||||||||
| 08-ماي | 22:00 | VFR | 240° | 14 kt | Clouds and Visibility are OK | >= 6 miles | ||||||||
| 08-ماي | 21:00 | VFR | 240° | 14 kt | Clouds and Visibility are OK | >= 6 miles | ||||||||
| 08-ماي | 20:00 | VFR | 240° | 14 kt | Clouds and Visibility are OK | >= 6 miles | ||||||||
| 08-ماي | 19:00 | VFR | 240° | 14 kt | Clouds and Visibility are OK | >= 6 miles | ||||||||
| 08-ماي | 18:00 | VFR | 240° | 14 kt | Clouds and Visibility are OK | >= 6 miles | ||||||||
| 08-ماي | 17:00 | VFR | 240° | 14 kt | Clouds and Visibility are OK | >= 6 miles | ||||||||
| 08-ماي | 16:00 | VFR | 240° | 14 kt | Clouds and Visibility are OK | >= 6 miles | ||||||||
There is no METAR data available at YXTO. Showing METAR data for YTWB (3 mi شمالي غربي).
محفوظات أحدث تقرير روتيني عن حالة الطقس من أجل الطيران (الميتار) TWB ( لا توجد بيانات لـYXTO)
| Date | Time (AEST) | Flight Rules | Wind Dir. | Speed | Type | Height AGL (ft) | Visibility | Temp (°C) | Temp (°F) | Dew Point (°C) | Dew Point (°F) | Rel. Humid. | Pressure | Density Altitude | Remarks |
|---|---|---|---|---|---|---|---|---|---|---|---|---|---|---|---|
| 08-ماي | 16:00 | VFR | 240° | 13 kt | 10000 meters | 17° | 62° | 0° | 32° | 32% | 1020 mb | 2,601 ft | |||
| 08-ماي | 15:00 | VFR | 250° | 14 kt | 10000 meters | 18° | 64° | 0° | 32° | 30% | 1020 mb | 2,721 ft | |||
| 08-ماي | 14:00 | VFR | 250° | 12 kt | 10000 meters | 18° | 64° | -1° | 30° | 28% | 1020 mb | 2,721 ft | |||
| 08-ماي | 13:00 | VFR | 240° | 13 kt | 10000 meters | 17° | 62° | -1° | 30° | 29% | 1020 mb | 2,601 ft | |||
| 08-ماي | 12:00 | VFR | 220° | 12 kt | 10000 meters | 15° | 59° | -2° | 28° | 31% | 1021 mb | 2,331 ft | |||
| 08-ماي | 11:00 | VFR | 240° | 10 kt | 10000 meters | 13° | 55° | -3° | 26° | 33% | 1022 mb | 2,062 ft | |||
| 08-ماي | 10:00 | VFR | 250° | 9 kt | 10000 meters | 11° | 51° | -2° | 28° | 40% | 1023 mb | 1,792 ft | |||
| 08-ماي | 09:00 | VFR | 260° | 7 kt | 10000 meters | 9° | 48° | -3° | 26° | 43% | 1023 mb | 1,552 ft | |||
| 08-ماي | 08:00 | VFR | 250° | 9 kt | 10000 meters | 7° | 44° | -2° | 28° | 53% | 1022 mb | 1,342 ft | |||
| 08-ماي | 07:00 | VFR | 230° | 9 kt | 10000 meters | 5° | 41° | -3° | 26° | 56% | 1022 mb | 1,102 ft | |||
| 08-ماي | 06:00 | VFR | 240° | 8 kt | 10000 meters | 5° | 41° | -3° | 26° | 56% | 1021 mb | 1,131 ft | |||
| 08-ماي | 05:00 | VFR | 230° | 8 kt | 10000 meters | 5° | 41° | -3° | 26° | 56% | 1021 mb | 1,131 ft | |||
| 08-ماي | 04:00 | VFR | 230° | 15 kt | 10000 meters | 5° | 41° | -3° | 26° | 56% | 1020 mb | 1,161 ft | |||
| 08-ماي | 03:00 | VFR | 250° | 8 kt | 10000 meters | 5° | 41° | -3° | 26° | 56% | 1021 mb | 1,131 ft | |||
| 08-ماي | 02:00 | VFR | 230° | 9 kt | 10000 meters | 6° | 42° | -2° | 28° | 56% | 1021 mb | 1,251 ft | |||
| 08-ماي | 01:00 | VFR | 230° | 12 kt | 10000 meters | 7° | 44° | -1° | 30° | 57% | 1020 mb | 1,401 ft | |||
| 08-ماي | 00:00 | VFR | 230° | 13 kt | 10000 meters | 8° | 46° | 2° | 35° | 66% | 1021 mb | 1,491 ft | |||
| 07-ماي | 23:00 | VFR | 230° | 14 kt | 10000 meters | 9° | 48° | 4° | 39° | 71% | 1020 mb | 1,641 ft | |||
| 07-ماي | 22:02 | VFR | 240° | 17 kt | 10000 meters | 11° | 51° | 5° | 41° | 66% | 1020 mb | 1,881 ft | Wind gusting to 28 KT | ||
| 07-ماي | 21:00 | VFR | 250° | 13 kt | 10000 meters | 12° | 53° | 5° | 41° | 62% | 1020 mb | 2,001 ft | |||
| 07-ماي | 20:00 | VFR | 260° | 13 kt | 10000 meters | 13° | 55° | 4° | 39° | 54% | 1020 mb | 2,121 ft | |||
| 07-ماي | 19:00 | VFR | 260° | 12 kt | 10000 meters | 13° | 55° | 4° | 39° | 54% | 1020 mb | 2,121 ft | |||
| 07-ماي | 18:00 | VFR | 260° | 12 kt | 10000 meters | 15° | 59° | 5° | 41° | 51% | 1019 mb | 2,390 ft | |||
| 07-ماي | 17:00 | VFR | 260° | 15 kt | 10000 meters | 17° | 62° | 4° | 39° | 42% | 1018 mb | 2,660 ft |
تسجيل الدخول
| مُتصفحك غير مُدعَّم. قم بترقية متصفحك |
